Time;durP1;ratioP1;P1;durP2;ratioP2;P2;SDS_P1;SDS_P2;PMS_P1;PMS_P2;Temp;Humidity;BMP_temperature;BMP_pressure;BME280_temperature;BME280_humidity;BME280_pressure;Samples;Min_cycle;Max_cycle;Signal;HPM_P1;HPM_P2
2021/07/19 00:01:24;;;;;;;0.28;0.20;;;12.70;97.80;;;;;;4936439;29;20564;-69
2021/07/19 00:03:49;;;;;;;1.60;0.28;;;12.70;97.90;;;;;;4936471;29;20035;-69
2021/07/19 00:06:15;;;;;;;0.20;0.10;;;12.70;97.80;;;;;;4936192;29;20063;-70
2021/07/19 00:08:41;;;;;;;0.80;0.20;;;12.60;97.90;;;;;;4919138;29;20091;-69
2021/07/19 00:11:07;;;;;;;0.80;0.20;;;12.60;98.00;;;;;;4936340;29;20155;-69
2021/07/19 00:13:33;;;;;;;0.80;0.20;;;12.50;98.10;;;;;;4936078;29;20023;-69
2021/07/19 00:15:59;;;;;;;2.28;0.20;;;12.60;98.30;;;;;;4936035;29;20035;-69
2021/07/19 00:18:25;;;;;;;0.20;0.20;;;12.60;98.30;;;;;;4936318;29;20031;-69
2021/07/19 00:20:51;;;;;;;1.75;0.30;;;12.50;98.20;;;;;;4936311;29;20036;-69
2021/07/19 00:23:16;;;;;;;0.20;0.20;;;12.50;98.30;;;;;;4936122;29;20107;-69
2021/07/19 00:25:42;;;;;;;1.08;0.30;;;12.50;98.50;;;;;;4936034;29;20479;-69
2021/07/19 00:28:08;;;;;;;0.20;0.20;;;12.50;98.60;;;;;;4935872;29;20114;-71
2021/07/19 00:30:36;;;;;;;0.75;0.20;;;12.50;98.60;;;;;;4935943;29;20063;-71
2021/07/19 00:33:03;;;;;;;0.20;0.20;;;12.50;98.80;;;;;;4935601;29;20110;-70
2021/07/19 00:35:29;;;;;;;0.98;0.13;;;12.50;98.80;;;;;;4918835;29;20078;-72
2021/07/19 00:37:55;;;;;;;0.52;0.30;;;12.40;98.90;;;;;;4935925;29;20051;-71
2021/07/19 00:40:27;;;;;;;0.20;0.20;;;12.40;99.10;;;;;;4935882;29;20039;-71
2021/07/19 00:42:54;;;;;;;0.20;0.20;;;12.40;99.30;;;;;;4935923;29;20111;-71
2021/07/19 00:45:24;;;;;;;1.17;0.20;;;12.40;99.40;;;;;;4935565;29;20479;-72
2021/07/19 00:47:50;;;;;;;0.20;0.20;;;12.40;99.50;;;;;;4935896;29;20087;-71
2021/07/19 00:50:18;;;;;;;0.20;0.20;;;12.40;99.50;;;;;;4934910;29;20032;-71
2021/07/19 00:52:44;;;;;;;0.63;0.22;;;12.30;99.70;;;;;;4935164;29;20110;-70
2021/07/19 00:55:12;;;;;;;0.50;0.20;;;12.30;99.80;;;;;;4935303;29;20483;-70
2021/07/19 00:57:39;;;;;;;0.20;0.20;;;12.30;99.80;;;;;;4934435;29;20044;-70
2021/07/19 01:00:11;;;;;;;0.40;0.30;;;12.30;99.90;;;;;;4935580;29;20032;-69
2021/07/19 01:02:41;;;;;;;0.55;0.30;;;12.30;99.90;;;;;;4935257;29;20027;-70
2021/07/19 01:05:07;;;;;;;;;;;12.30;99.90;;;;;;4935605;29;20407;-70
2021/07/19 01:07:36;;;;;;;0.30;0.30;;;12.30;99.90;;;;;;4935463;29;19914;-70
2021/07/19 01:10:04;;;;;;;0.80;0.20;;;12.20;99.90;;;;;;4918211;29;20396;-70
2021/07/19 01:12:31;;;;;;;0.30;0.30;;;12.20;99.90;;;;;;4935127;29;20024;-70
2021/07/19 01:14:56;;;;;;;0.20;0.20;;;12.20;99.90;;;;;;4935153;29;20035;-70
2021/07/19 01:53:31;;;;;;;2.65;0.30;;;12.00;99.90;;;;;;5311922;23;20051;-70
2021/07/19 01:55:58;;;;;;;1.02;0.30;;;12.00;99.90;;;;;;4934649;29;20048;-70
2021/07/19 01:58:26;;;;;;;0.20;0.20;;;12.00;99.90;;;;;;4934412;29;20522;-71
2021/07/19 02:00:52;;;;;;;0.52;0.30;;;12.00;99.90;;;;;;4934737;29;20035;-71
2021/07/19 02:03:18;;;;;;;0.28;0.20;;;12.10;99.90;;;;;;4937833;29;20016;-69
2021/07/19 02:05:44;;;;;;;0.50;0.30;;;12.00;99.90;;;;;;4938512;29;20030;-71
2021/07/19 02:08:15;;;;;;;0.75;0.20;;;12.00;99.90;;;;;;4938491;29;20084;-71
2021/07/19 02:10:41;;;;;;;1.20;0.40;;;12.00;99.90;;;;;;4938440;29;20063;-69
2021/07/19 02:13:10;;;;;;;0.43;0.40;;;12.00;99.90;;;;;;4938385;29;20031;-71
2021/07/19 02:15:37;;;;;;;0.10;0.10;;;12.00;99.90;;;;;;4938474;29;20118;-73
2021/07/19 02:18:05;;;;;;;0.15;0.15;;;12.00;99.90;;;;;;4938587;29;20044;-72
2021/07/19 02:20:32;;;;;;;0.20;0.20;;;12.00;99.90;;;;;;4938214;29;20055;-72
2021/07/19 02:23:01;;;;;;;0.30;0.20;;;12.00;99.90;;;;;;4938429;29;20059;-70
2021/07/19 02:25:28;;;;;;;0.38;0.30;;;12.00;99.90;;;;;;4938408;29;20055;-70
2021/07/19 02:27:55;;;;;;;0.30;0.30;;;12.00;99.90;;;;;;4938413;29;20431;-72
2021/07/19 02:30:23;;;;;;;0.82;0.45;;;12.10;99.90;;;;;;4921167;29;20505;-70
2021/07/19 02:32:55;;;;;;;0.63;0.40;;;12.10;99.90;;;;;;4937900;29;20067;-69
2021/07/19 02:35:24;;;;;;;0.30;0.30;;;12.10;99.90;;;;;;4938389;29;20036;-71
2021/07/19 02:37:52;;;;;;;0.77;0.30;;;12.20;99.90;;;;;;4938133;29;20464;-71
2021/07/19 02:40:21;;;;;;;2.10;0.35;;;12.20;99.90;;;;;;4938327;29;20102;-71
2021/07/19 02:42:54;;;;;;;0.77;0.35;;;12.20;99.90;;;;;;4937857;29;20051;-71
2021/07/19 02:45:21;;;;;;;0.90;0.38;;;12.20;99.90;;;;;;4938273;29;20028;-71
2021/07/19 02:47:52;;;;;;;0.22;0.22;;;12.20;99.90;;;;;;4937966;29;20086;-71
2021/07/19 02:50:21;;;;;;;1.15;0.40;;;12.20;99.90;;;;;;4937783;29;20023;-71
2021/07/19 02:52:49;;;;;;;0.30;0.30;;;12.30;99.90;;;;;;4937389;29;20493;-71
2021/07/19 02:55:17;;;;;;;3.40;0.40;;;12.30;99.90;;;;;;4937647;29;20079;-71
2021/07/19 02:57:43;;;;;;;1.85;0.40;;;12.40;99.90;;;;;;4937550;29;20023;-71
2021/07/19 03:00:14;;;;;;;1.65;0.30;;;12.40;99.90;;;;;;4937574;29;20047;-71
2021/07/19 03:03:01;;;;;;;0.60;0.40;;;12.50;99.90;;;;;;4937757;29;20031;-72
2021/07/19 03:05:33;;;;;;;1.45;0.30;;;12.50;99.90;;;;;;4937462;29;20032;-71
2021/07/19 03:08:00;;;;;;;1.40;0.50;;;12.60;99.90;;;;;;4937579;29;20075;-71
2021/07/19 03:10:28;;;;;;;1.15;0.68;;;12.60;99.90;;;;;;4937390;29;20036;-71
2021/07/19 03:13:09;;;;;;;0.95;0.47;;;12.70;99.90;;;;;;4936721;29;20059;-71
2021/07/19 03:15:35;;;;;;;0.57;0.40;;;12.80;99.90;;;;;;4937062;29;20048;-72
2021/07/19 03:18:06;;;;;;;0.93;0.50;;;12.80;99.90;;;;;;4937232;29;20475;-72
2021/07/19 03:20:36;;;;;;;2.13;0.40;;;12.80;99.90;;;;;;4937107;29;20470;-72
2021/07/19 03:23:04;;;;;;;2.33;0.35;;;12.90;99.90;;;;;;4937138;29;20495;-72
2021/07/19 03:25:31;;;;;;;0.40;0.40;;;12.90;99.90;;;;;;4937045;29;20475;-72
2021/07/19 03:27:58;;;;;;;1.80;0.50;;;12.90;99.90;;;;;;4937305;29;20391;-72
2021/07/19 03:30:24;;;;;;;0.40;0.40;;;13.00;99.90;;;;;;4937371;29;20058;-72
2021/07/19 03:32:51;;;;;;;0.52;0.40;;;13.00;99.90;;;;;;4937156;29;20400;-72
2021/07/19 03:35:19;;;;;;;0.90;0.47;;;13.00;99.90;;;;;;4937210;29;20044;-72
2021/07/19 03:37:47;;;;;;;0.30;0.30;;;13.00;99.90;;;;;;4936668;29;20435;-72
2021/07/19 03:40:16;;;;;;;1.42;0.55;;;13.00;99.90;;;;;;4936822;29;20588;-71
2021/07/19 03:42:43;;;;;;;1.77;0.50;;;13.10;99.90;;;;;;4937014;29;20027;-71
2021/07/19 03:45:13;;;;;;;0.40;0.40;;;13.10;99.90;;;;;;4937126;29;20423;-71
2021/07/19 03:47:41;;;;;;;0.30;0.30;;;13.20;99.90;;;;;;4936761;29;20040;-71
2021/07/19 03:50:09;;;;;;;0.88;0.50;;;13.30;99.90;;;;;;4936752;29;20020;-71
2021/07/19 03:52:38;;;;;;;0.93;0.38;;;13.30;99.90;;;;;;4936311;29;20051;-71
2021/07/19 03:55:09;;;;;;;0.47;0.40;;;13.50;99.90;;;;;;4936788;29;20492;-72
2021/07/19 03:57:36;;;;;;;1.35;0.30;;;13.80;99.90;;;;;;4936770;29;20035;-72
2021/07/19 04:00:07;;;;;;;1.55;0.40;;;14.20;99.90;;;;;;4936529;29;20032;-73
2021/07/19 04:02:35;;;;;;;0.30;0.30;;;14.60;99.90;;;;;;4936502;29;20039;-73
2021/07/19 04:05:07;;;;;;;0.40;0.40;;;15.00;99.90;;;;;;4936549;29;20030;-73
2021/07/19 04:07:37;;;;;;;2.33;0.50;;;15.30;99.80;;;;;;4936730;29;20031;-73
2021/07/19 04:10:14;;;;;;;2.05;0.50;;;15.60;99.00;;;;;;4936507;29;20032;-72
2021/07/19 04:12:43;;;;;;;0.50;0.28;;;15.70;98.00;;;;;;4936610;29;20034;-73
2021/07/19 04:15:09;;;;;;;0.68;0.28;;;15.70;97.80;;;;;;4936251;29;20040;-73
2021/07/19 04:17:35;;;;;;;1.98;0.40;;;15.60;97.20;;;;;;4936363;29;20058;-73
2021/07/19 04:20:08;;;;;;;0.80;0.45;;;15.70;96.80;;;;;;4936403;29;20055;-73
2021/07/19 04:22:34;;;;;;;1.75;0.38;;;15.80;96.50;;;;;;4936239;29;20035;-72
2021/07/19 04:25:09;;;;;;;0.60;0.40;;;16.00;96.00;;;;;;4935435;29;20035;-73
2021/07/19 04:27:37;;;;;;;0.32;0.32;;;16.20;95.50;;;;;;4935972;29;20026;-72
2021/07/19 04:30:04;;;;;;;2.75;0.40;;;16.40;94.80;;;;;;4936026;29;20019;-72
2021/07/19 04:32:30;;;;;;;0.90;0.30;;;16.70;94.30;;;;;;4935609;29;20111;-77
2021/07/19 04:34:56;;;;;;;3.45;0.50;;;17.00;93.70;;;;;;4935595;29;20126;-77
2021/07/19 04:37:22;;;;;;;1.65;0.30;;;17.30;93.60;;;;;;4935819;29;20027;-76
2021/07/19 04:39:49;;;;;;;3.40;0.32;;;17.60;93.30;;;;;;4935541;29;20027;-76
2021/07/19 04:42:15;;;;;;;0.30;0.30;;;18.20;92.20;;;;;;4936091;29;20066;-77
2021/07/19 04:44:41;;;;;;;0.60;0.32;;;18.60;91.00;;;;;;4935828;29;20028;-80
2021/07/19 04:47:07;;;;;;;3.15;0.47;;;18.70;88.20;;;;;;4935631;29;20035;-78
2021/07/19 04:49:40;;;;;;;0.65;0.40;;;18.80;86.00;;;;;;4935591;29;20032;-78
2021/07/19 04:52:06;;;;;;;2.90;0.45;;;18.70;85.20;;;;;;4935610;29;20036;-78
2021/07/19 04:54:37;;;;;;;1.73;0.40;;;18.80;86.60;;;;;;4935660;29;20163;-77
2021/07/19 04:57:05;;;;;;;0.45;0.30;;;18.90;84.90;;;;;;4935568;29;20020;-78
2021/07/19 04:59:39;;;;;;;0.90;0.30;;;19.00;82.20;;;;;;4935459;29;20028;-83
2021/07/19 05:02:08;;;;;;;0.88;0.30;;;19.10;82.00;;;;;;4935720;29;20043;-78
2021/07/19 05:04:35;;;;;;;0.83;0.40;;;19.20;81.40;;;;;;4935641;29;20051;-80
2021/07/19 05:07:02;;;;;;;0.80;0.43;;;19.40;81.80;;;;;;4918474;29;20035;-76
2021/07/19 05:09:29;;;;;;;0.50;0.40;;;19.60;78.70;;;;;;4935247;29;20051;-76
2021/07/19 05:11:55;;;;;;;2.05;0.40;;;19.70;78.50;;;;;;4935178;29;20038;-76
2021/07/19 05:14:21;;;;;;;1.38;0.40;;;19.80;76.50;;;;;;4935369;29;20035;-76
2021/07/19 05:16:48;;;;;;;1.38;0.40;;;19.80;76.00;;;;;;4935319;29;20060;-75
2021/07/19 05:19:14;;;;;;;0.95;0.45;;;19.60;75.00;;;;;;4935411;29;20028;-77
2021/07/19 05:21:41;;;;;;;0.77;0.40;;;19.40;75.20;;;;;;4935054;29;20515;-76
2021/07/19 05:24:08;;;;;;;0.50;0.43;;;19.30;75.50;;;;;;4935300;29;20123;-77
2021/07/19 05:26:37;;;;;;;0.70;0.40;;;19.30;75.10;;;;;;4935196;29;20043;-78
2021/07/19 05:29:03;;;;;;;0.90;0.32;;;19.30;74.80;;;;;;4935105;29;20030;-79
2021/07/19 05:31:29;;;;;;;1.15;0.35;;;19.40;74.90;;;;;;4935366;29;20153;-75
2021/07/19 05:33:55;;;;;;;1.58;0.40;;;19.50;74.20;;;;;;4934554;29;20534;-74
2021/07/19 05:36:21;;;;;;;3.47;0.40;;;19.60;73.90;;;;;;4934515;29;20094;-75
2021/07/19 05:38:46;;;;;;;3.30;0.60;;;19.60;72.70;;;;;;4935066;29;20023;-76
2021/07/19 05:41:13;;;;;;;2.22;0.47;;;19.60;72.80;;;;;;4934830;29;20032;-75
2021/07/19 05:43:39;;;;;;;0.65;0.40;;;19.50;72.40;;;;;;4935003;29;20031;-75
2021/07/19 05:46:05;;;;;;;2.63;0.60;;;19.40;72.80;;;;;;4935167;29;20039;-76
2021/07/19 05:48:32;;;;;;;2.58;0.40;;;19.60;73.30;;;;;;4934825;29;20052;-80
2021/07/19 05:50:58;;;;;;;1.70;0.50;;;19.80;72.00;;;;;;4934662;29;20039;-80
2021/07/19 05:53:24;;;;;;;0.82;0.55;;;20.00;72.50;;;;;;4934539;29;20051;-80
2021/07/19 05:55:50;;;;;;;0.73;0.40;;;20.10;71.30;;;;;;4934617;29;20043;-79
2021/07/19 05:58:16;;;;;;;1.27;0.55;;;20.20;71.00;;;;;;4934887;29;20020;-79
2021/07/19 06:00:43;;;;;;;1.05;0.60;;;20.20;70.20;;;;;;4934824;29;20106;-77
2021/07/19 06:03:09;;;;;;;1.23;0.47;;;20.20;69.80;;;;;;4934443;29;20550;-77
2021/07/19 06:05:36;;;;;;;2.00;0.50;;;19.90;69.80;;;;;;4934812;29;20035;-76
2021/07/19 06:08:03;;;;;;;0.65;0.32;;;19.70;70.10;;;;;;4934747;29;20036;-77
2021/07/19 06:10:28;;;;;;;1.88;0.57;;;19.70;70.00;;;;;;4934805;29;20034;-81
2021/07/19 06:12:54;;;;;;;4.35;0.40;;;19.50;70.20;;;;;;4934361;29;20122;-78
2021/07/19 06:15:20;;;;;;;2.95;0.60;;;19.60;71.30;;;;;;4934454;29;20035;-77
2021/07/19 06:17:46;;;;;;;1.85;0.60;;;19.80;70.60;;;;;;4934798;29;20040;-78
2021/07/19 06:20:18;;;;;;;0.70;0.40;;;19.70;69.60;;;;;;4934776;29;20038;-80
2021/07/19 06:22:46;;;;;;;1.45;0.52;;;19.90;69.80;;;;;;4934323;29;20034;-76
2021/07/19 06:25:14;;;;;;;2.15;0.70;;;20.00;69.50;;;;;;4934720;29;20118;-76
2021/07/19 06:27:41;;;;;;;3.65;0.50;;;19.90;68.60;;;;;;4934446;29;20028;-76
2021/07/19 06:30:10;;;;;;;0.88;0.43;;;19.80;69.20;;;;;;4934682;29;20078;-77
2021/07/19 06:32:36;;;;;;;2.77;0.63;;;19.70;69.50;;;;;;4934650;29;20024;-75
2021/07/19 06:35:03;;;;;;;0.60;0.47;;;19.90;70.40;;;;;;4934087;29;20047;-75
2021/07/19 06:37:28;;;;;;;2.03;0.52;;;20.10;69.60;;;;;;4934583;29;20027;-75
2021/07/19 06:39:54;;;;;;;0.95;0.30;;;20.10;69.00;;;;;;4934144;29;20572;-75
2021/07/19 06:42:23;;;;;;;1.40;0.60;;;20.20;69.00;;;;;;4934302;29;20031;-75
2021/07/19 06:44:52;;;;;;;1.52;0.50;;;20.30;68.00;;;;;;4934079;29;20016;-75
2021/07/19 06:47:18;;;;;;;2.50;0.60;;;20.30;67.70;;;;;;4934338;29;20019;-75
2021/07/19 06:49:44;;;;;;;2.20;0.50;;;20.20;67.70;;;;;;4937990;29;20035;-76
2021/07/19 06:52:10;;;;;;;1.20;0.60;;;20.30;67.50;;;;;;4937461;29;20479;-75
2021/07/19 06:54:35;;;;;;;1.67;0.60;;;20.20;66.70;;;;;;4937550;29;20032;-75
2021/07/19 06:57:01;;;;;;;2.25;0.40;;;20.30;67.00;;;;;;4920529;29;20027;-73
2021/07/19 06:59:27;;;;;;;2.08;0.30;;;20.30;67.10;;;;;;4937933;29;20660;-77
2021/07/19 07:01:53;;;;;;;1.00;0.50;;;20.10;68.30;;;;;;4937109;29;20035;-75
2021/07/19 07:04:18;;;;;;;1.88;0.45;;;20.00;67.60;;;;;;4937520;29;20071;-75
2021/07/19 07:06:44;;;;;;;2.10;0.50;;;19.90;67.20;;;;;;4937787;29;20059;-75
2021/07/19 07:09:10;;;;;;;2.08;0.50;;;20.00;67.60;;;;;;4937709;29;20415;-73
2021/07/19 07:11:36;;;;;;;0.82;0.40;;;20.20;67.80;;;;;;4937573;29;20079;-74
2021/07/19 07:14:02;;;;;;;1.10;0.50;;;20.20;66.90;;;;;;4937389;29;20028;-74
2021/07/19 07:16:28;;;;;;;1.73;0.60;;;20.10;66.60;;;;;;4937551;29;20399;-74
2021/07/19 07:18:55;;;;;;;0.45;0.30;;;20.10;67.20;;;;;;4936515;29;20023;-75
2021/07/19 07:21:21;;;;;;;3.15;1.20;;;20.10;66.90;;;;;;4937446;29;20036;-75
2021/07/19 07:23:47;;;;;;;1.02;0.30;;;20.10;67.20;;;;;;4937202;29;20032;-75
2021/07/19 07:26:12;;;;;;;1.38;0.30;;;20.20;67.30;;;;;;4937131;29;20030;-74
2021/07/19 07:28:38;;;;;;;0.98;0.40;;;20.10;67.10;;;;;;4937075;29;20067;-74
2021/07/19 07:31:04;;;;;;;0.93;0.38;;;20.10;66.90;;;;;;4936618;29;20032;-73
2021/07/19 07:33:30;;;;;;;0.85;0.30;;;20.10;66.50;;;;;;4936669;29;20036;-73
2021/07/19 07:35:55;;;;;;;1.92;0.35;;;20.20;66.20;;;;;;4936254;29;20107;-74
2021/07/19 07:38:21;;;;;;;1.85;0.40;;;20.20;66.60;;;;;;4936649;29;20120;-76
2021/07/19 07:40:48;;;;;;;0.35;0.30;;;20.20;65.00;;;;;;4936583;29;20027;-77
2021/07/19 07:43:14;;;;;;;0.65;0.25;;;20.20;66.40;;;;;;4936574;29;20051;-76
2021/07/19 07:45:40;;;;;;;0.80;0.40;;;20.10;65.50;;;;;;4936611;29;20074;-69
2021/07/19 07:48:07;;;;;;;8.13;1.15;;;20.20;67.20;;;;;;4936298;29;20428;-75
2021/07/19 07:50:33;;;;;;;0.82;0.35;;;20.40;66.70;;;;;;4936532;29;20452;-75
2021/07/19 07:52:58;;;;;;;2.13;0.55;;;20.50;65.60;;;;;;4936217;29;20563;-74
2021/07/19 07:55:24;;;;;;;0.80;0.30;;;20.50;66.30;;;;;;4936753;29;20044;-75
2021/07/19 07:57:50;;;;;;;1.75;0.40;;;20.50;66.10;;;;;;4919316;29;20028;-75
2021/07/19 08:00:18;;;;;;;0.63;0.30;;;20.50;65.30;;;;;;4936382;29;20439;-75
2021/07/19 08:02:44;;;;;;;1.20;0.30;;;20.50;64.90;;;;;;4936386;29;20055;-75
2021/07/19 08:05:11;;;;;;;3.35;0.47;;;20.50;65.20;;;;;;4936300;29;20059;-75
2021/07/19 08:07:36;;;;;;;2.30;0.38;;;20.30;63.40;;;;;;4936696;29;20059;-75
2021/07/19 08:10:08;;;;;;;0.73;0.40;;;20.10;63.30;;;;;;4936219;29;20063;-75
2021/07/19 08:12:34;;;;;;;0.50;0.30;;;20.00;63.90;;;;;;4936290;29;20649;-74
2021/07/19 08:15:03;;;;;;;0.30;0.22;;;20.10;64.00;;;;;;4936302;29;20039;-74
2021/07/19 08:17:32;;;;;;;0.88;0.43;;;20.10;63.10;;;;;;4936268;29;20491;-76
2021/07/19 08:19:58;;;;;;;3.10;0.40;;;20.00;63.90;;;;;;4936154;29;20042;-75
2021/07/19 08:22:24;;;;;;;0.52;0.30;;;20.00;63.00;;;;;;4936074;29;20024;-75
2021/07/19 08:24:50;;;;;;;0.95;0.40;;;19.90;63.60;;;;;;4918923;29;20038;-74
2021/07/19 08:27:17;;;;;;;1.33;0.32;;;19.80;63.70;;;;;;4936396;29;20028;-74
2021/07/19 08:29:43;;;;;;;0.38;0.20;;;19.80;63.90;;;;;;4936221;29;20114;-75
2021/07/19 08:32:09;;;;;;;0.95;0.25;;;19.70;63.90;;;;;;4935888;29;20119;-74
2021/07/19 08:34:35;;;;;;;1.23;0.38;;;19.80;64.20;;;;;;4935767;29;20044;-75
2021/07/19 08:37:01;;;;;;;0.52;0.20;;;19.80;62.40;;;;;;4935848;29;20031;-74
2021/07/19 08:39:27;;;;;;;0.75;0.28;;;19.80;62.60;;;;;;4935725;29;20467;-75
2021/07/19 08:41:53;;;;;;;0.32;0.20;;;19.80;62.40;;;;;;4935593;29;20076;-75
2021/07/19 08:44:19;;;;;;;0.20;0.20;;;19.80;62.40;;;;;;4935600;29;20028;-76
2021/07/19 08:46:45;;;;;;;0.38;0.28;;;19.90;64.00;;;;;;4935446;29;20067;-77
2021/07/19 08:49:11;;;;;;;0.28;0.20;;;20.10;63.40;;;;;;4918512;29;20034;-76
2021/07/19 08:51:42;;;;;;;0.82;0.40;;;20.10;62.60;;;;;;4935489;29;20573;-76
2021/07/19 08:54:12;;;;;;;0.80;0.30;;;20.10;62.60;;;;;;4934971;29;20090;-76
2021/07/19 08:56:40;;;;;;;0.52;0.30;;;20.20;62.10;;;;;;4935335;29;20051;-76
2021/07/19 08:59:07;;;;;;;1.00;0.47;;;20.10;62.80;;;;;;4935471;29;20027;-75
2021/07/19 09:01:36;;;;;;;0.35;0.30;;;20.10;63.30;;;;;;4935335;29;20031;-75
2021/07/19 09:04:02;;;;;;;0.98;0.20;;;20.00;62.80;;;;;;4935395;29;20023;-76
2021/07/19 09:06:28;;;;;;;0.50;0.30;;;19.90;63.60;;;;;;4935378;29;20439;-75
2021/07/19 09:08:54;;;;;;;0.32;0.28;;;19.90;64.60;;;;;;4935408;29;20019;-76
2021/07/19 09:11:22;;;;;;;1.90;0.40;;;20.00;65.50;;;;;;4934971;29;20024;-75
2021/07/19 09:14:01;;;;;;;1.02;0.30;;;20.00;64.10;;;;;;4935247;29;20027;-75
2021/07/19 09:16:53;;;;;;;1.92;0.45;;;20.00;63.90;;;;;;4934864;29;20119;-73
2021/07/19 09:19:21;;;;;;;1.02;0.50;;;20.10;65.20;;;;;;4930913;29;20035;-74
2021/07/19 09:21:50;;;;;;;2.25;0.30;;;20.20;62.80;;;;;;4934987;29;20431;-74
2021/07/19 09:24:17;;;;;;;0.52;0.22;;;20.20;62.30;;;;;;4935255;29;20062;-75
2021/07/19 09:26:46;;;;;;;0.63;0.30;;;20.10;62.30;;;;;;4935219;29;20032;-74
2021/07/19 09:29:14;;;;;;;0.28;0.20;;;20.10;64.10;;;;;;4918343;29;20031;-74
2021/07/19 09:31:42;;;;;;;0.20;0.20;;;20.20;64.40;;;;;;4934975;29;20028;-74
2021/07/19 09:34:19;;;;;;;0.50;0.40;;;20.30;65.00;;;;;;4934733;29;20490;-72
2021/07/19 09:37:07;;;;;;;0.88;0.43;;;20.40;64.10;;;;;;4934961;29;20039;-73
2021/07/19 09:39:51;;;;;;;0.35;0.20;;;20.40;62.90;;;;;;4934888;29;20024;-74
2021/07/19 09:42:22;;;;;;;0.52;0.30;;;20.20;61.40;;;;;;4934894;29;20456;-73
2021/07/19 09:44:53;;;;;;;1.38;0.32;;;20.20;62.70;;;;;;4934649;29;20114;-73
2021/07/19 09:47:18;;;;;;;3.30;0.50;;;20.20;63.50;;;;;;4935055;29;20024;-70
2021/07/19 09:49:45;;;;;;;2.00;0.35;;;20.30;63.50;;;;;;4934714;29;20583;-70
2021/07/19 09:52:12;;;;;;;1.85;0.30;;;20.40;62.90;;;;;;4917467;29;20027;-70
2021/07/19 09:54:44;;;;;;;2.42;0.17;;;20.30;61.90;;;;;;4934924;29;20057;-71
2021/07/19 09:57:11;;;;;;;0.93;0.20;;;20.20;62.30;;;;;;4934746;29;20024;-70
2021/07/19 09:59:51;;;;;;;2.33;0.35;;;20.20;62.50;;;;;;4935028;29;20020;-70
2021/07/19 10:02:35;;;;;;;0.55;0.22;;;20.20;62.50;;;;;;4934743;29;20103;-71
2021/07/19 10:05:03;;;;;;;4.95;0.20;;;20.30;61.80;;;;;;4934491;29;20479;-72
2021/07/19 10:07:28;;;;;;;0.40;0.20;;;20.30;62.30;;;;;;4934749;29;20030;-72
2021/07/19 10:10:05;;;;;;;0.20;0.20;;;20.30;62.10;;;;;;4934519;29;20028;-72
2021/07/19 10:12:31;;;;;;;0.20;0.20;;;20.20;61.00;;;;;;4935019;29;20391;-72
2021/07/19 10:14:58;;;;;;;3.03;0.10;;;20.20;61.40;;;;;;4934204;29;20036;-72
2021/07/19 10:17:25;;;;;;;0.28;0.10;;;20.20;61.60;;;;;;4934805;29;20058;-72
2021/07/19 10:19:52;;;;;;;2.10;0.20;;;20.10;61.50;;;;;;4934602;29;20031;-71
2021/07/19 10:22:18;;;;;;;0.20;0.20;;;20.10;61.70;;;;;;4934742;29;20031;-72
2021/07/19 10:24:44;;;;;;;0.70;0.30;;;20.10;61.20;;;;;;4938465;29;20031;-77
2021/07/19 10:27:22;;;;;;;0.20;0.20;;;20.00;61.10;;;;;;4938058;29;20558;-73
2021/07/19 10:29:49;;;;;;;2.47;0.30;;;20.10;61.70;;;;;;4937739;29;20099;-75
2021/07/19 10:32:22;;;;;;;2.53;0.30;;;20.30;66.80;;;;;;4938196;29;20082;-72
2021/07/19 10:34:54;;;;;;;1.08;0.38;;;20.40;61.90;;;;;;4921246;29;20395;-72
2021/07/19 10:37:34;;;;;;;0.20;0.20;;;20.30;61.70;;;;;;4937763;29;20031;-72
2021/07/19 10:40:03;;;;;;;0.47;0.30;;;20.30;62.00;;;;;;4938027;29;20024;-72
2021/07/19 10:42:34;;;;;;;3.05;0.30;;;20.30;62.00;;;;;;4937819;29;20377;-72
2021/07/19 10:45:11;;;;;;;1.13;0.30;;;20.30;61.90;;;;;;4937659;29;20038;-73
2021/07/19 10:47:54;;;;;;;1.75;0.30;;;20.30;61.70;;;;;;4938085;29;20067;-72
2021/07/19 10:50:27;;;;;;;1.10;0.30;;;20.40;61.30;;;;;;4937945;29;20056;-72
2021/07/19 10:53:01;;;;;;;1.10;0.32;;;20.30;61.30;;;;;;4937450;29;20044;-73
2021/07/19 10:55:31;;;;;;;3.00;0.20;;;20.40;62.30;;;;;;4937592;29;20040;-72
2021/07/19 10:58:04;;;;;;;2.90;0.30;;;20.40;61.60;;;;;;4937549;29;20024;-73
2021/07/19 11:00:38;;;;;;;1.08;0.30;;;20.40;60.90;;;;;;4937445;29;20024;-73
2021/07/19 11:03:15;;;;;;;0.95;0.38;;;20.30;60.80;;;;;;4937340;29;20062;-73
2021/07/19 11:05:44;;;;;;;1.27;0.30;;;20.20;60.30;;;;;;4937431;29;20488;-72
2021/07/19 11:08:25;;;;;;;0.30;0.20;;;20.20;61.10;;;;;;4937273;29;20035;-72
2021/07/19 11:10:52;;;;;;;0.32;0.22;;;20.20;61.70;;;;;;4937590;29;20367;-73
2021/07/19 11:13:26;;;;;;;0.60;0.30;;;20.20;61.50;;;;;;4937634;29;20059;-73
2021/07/19 11:15:53;;;;;;;1.65;0.20;;;20.20;61.50;;;;;;4937461;29;20039;-73
2021/07/19 11:18:26;;;;;;;1.38;0.30;;;20.20;61.00;;;;;;4937489;29;20020;-73
2021/07/19 11:20:55;;;;;;;0.68;0.20;;;20.30;60.00;;;;;;4937159;29;20038;-72
2021/07/19 11:23:34;;;;;;;0.60;0.20;;;20.40;60.90;;;;;;4937135;29;20028;-73
2021/07/19 11:26:03;;;;;;;0.32;0.20;;;20.40;61.80;;;;;;4936869;29;20667;-73
2021/07/19 11:28:30;;;;;;;0.43;0.20;;;20.40;60.30;;;;;;4937357;29;20032;-73
2021/07/19 11:31:13;;;;;;;1.92;0.30;;;20.40;60.80;;;;;;4936145;29;20066;-73
2021/07/19 11:33:38;;;;;;;1.33;0.22;;;20.40;60.60;;;;;;4937010;29;20028;-73
2021/07/19 11:36:26;;;;;;;0.40;0.20;;;20.40;60.70;;;;;;4936763;29;20114;-73
2021/07/19 11:39:03;;;;;;;1.67;0.30;;;20.40;60.50;;;;;;4936959;29;20479;-73
2021/07/19 11:41:33;;;;;;;0.55;0.32;;;20.30;60.60;;;;;;4936562;29;20032;-73
2021/07/19 11:44:02;;;;;;;0.40;0.25;;;20.30;60.60;;;;;;4919651;29;20448;-73
2021/07/19 11:46:34;;;;;;;2.17;0.30;;;20.20;61.60;;;;;;4936876;29;20027;-73
2021/07/19 11:49:03;;;;;;;1.52;0.32;;;20.20;61.60;;;;;;4936495;29;20063;-73
2021/07/19 11:51:30;;;;;;;0.73;0.40;;;20.30;61.70;;;;;;4936786;29;20036;-73
2021/07/19 11:53:57;;;;;;;0.30;0.30;;;20.30;61.20;;;;;;4936365;29;20067;-73
2021/07/19 11:56:24;;;;;;;0.85;0.38;;;20.30;61.40;;;;;;4936635;29;20040;-73
2021/07/19 11:59:01;;;;;;;3.30;0.40;;;20.30;60.60;;;;;;4936503;29;20032;-73
2021/07/19 12:01:32;;;;;;;1.67;0.40;;;20.20;60.30;;;;;;4936578;29;20103;-73
2021/07/19 12:04:04;;;;;;;1.55;0.30;;;20.20;60.40;;;;;;4936561;29;20027;-73
2021/07/19 12:06:30;;;;;;;0.70;0.30;;;20.10;60.50;;;;;;4936644;29;20115;-73
2021/07/19 12:09:03;;;;;;;1.38;0.40;;;20.10;61.00;;;;;;4936208;29;20078;-73
2021/07/19 12:11:30;;;;;;;1.15;0.30;;;20.20;61.20;;;;;;4936450;29;20031;-73
2021/07/19 12:14:09;;;;;;;0.35;0.13;;;20.20;61.40;;;;;;4936028;29;20502;-73
2021/07/19 12:16:41;;;;;;;0.37;0.30;;;20.10;61.60;;;;;;4936011;29;20047;-73
2021/07/19 12:19:12;;;;;;;0.22;0.20;;;20.20;61.70;;;;;;4935900;29;20558;-73
2021/07/19 12:21:44;;;;;;;0.38;0.20;;;20.20;60.90;;;;;;4935967;29;20487;-73
2021/07/19 12:24:12;;;;;;;1.13;0.50;;;20.20;61.70;;;;;;4936227;29;20066;-73
2021/07/19 12:26:48;;;;;;;0.30;0.30;;;20.20;60.60;;;;;;4935877;29;20035;-73
2021/07/19 12:29:19;;;;;;;0.20;0.20;;;20.20;60.10;;;;;;4935898;29;20065;-73
2021/07/19 12:31:44;;;;;;;0.70;0.30;;;20.20;60.50;;;;;;4918819;29;20023;-73
2021/07/19 12:34:17;;;;;;;0.22;0.20;;;20.20;60.70;;;;;;4935968;29;20030;-73
2021/07/19 12:37:07;;;;;;;0.55;0.30;;;20.10;59.90;;;;;;4935713;29;20046;-73
2021/07/19 12:39:39;;;;;;;0.98;0.22;;;20.10;61.20;;;;;;4936062;29;20075;-73
2021/07/19 12:42:32;;;;;;;0.28;0.20;;;20.20;60.70;;;;;;4935582;29;20036;-73
2021/07/19 12:44:59;;;;;;;0.40;0.20;;;20.30;60.50;;;;;;4931420;29;20201;-73
2021/07/19 12:47:28;;;;;;;2.28;0.22;;;20.30;60.30;;;;;;4935596;29;20469;-73
2021/07/19 12:49:54;;;;;;;1.70;0.57;;;20.40;60.00;;;;;;4918506;29;20020;-73
2021/07/19 12:52:30;;;;;;;1.48;0.25;;;20.40;59.40;;;;;;4935336;29;20066;-73
2021/07/19 12:55:16;;;;;;;0.88;0.20;;;20.40;59.90;;;;;;4935371;29;20032;-73
2021/07/19 12:57:48;;;;;;;0.45;0.30;;;20.40;59.90;;;;;;4918765;29;20126;-73
2021/07/19 13:00:16;;;;;;;2.70;0.40;;;20.40;60.40;;;;;;4935484;29;20090;-73
2021/07/19 13:02:43;;;;;;;0.57;0.30;;;20.40;60.60;;;;;;4935460;29;20619;-73
2021/07/19 13:05:14;;;;;;;4.22;0.38;;;20.40;60.10;;;;;;4935355;29;20082;-73
2021/07/19 13:07:42;;;;;;;2.63;0.43;;;20.30;60.70;;;;;;4935596;29;20035;-73
2021/07/19 13:10:14;;;;;;;0.90;0.40;;;20.30;60.80;;;;;;4935001;29;20106;-73
2021/07/19 13:12:52;;;;;;;1.95;0.38;;;20.30;61.30;;;;;;4935170;29;20024;-73
2021/07/19 13:15:20;;;;;;;1.30;0.40;;;20.30;60.90;;;;;;4934934;29;20096;-73
2021/07/19 13:17:46;;;;;;;1.35;0.50;;;20.30;60.70;;;;;;4935145;29;20038;-73
2021/07/19 13:20:15;;;;;;;0.30;0.30;;;20.30;60.50;;;;;;4934851;29;20024;-73
2021/07/19 13:22:45;;;;;;;0.82;0.38;;;20.30;60.20;;;;;;4935021;29;20038;-73
2021/07/19 13:25:24;;;;;;;0.85;0.38;;;20.40;60.70;;;;;;4934893;29;20027;-73
2021/07/19 13:27:50;;;;;;;0.25;0.25;;;20.40;60.60;;;;;;4935266;29;20031;-73
2021/07/19 13:30:17;;;;;;;0.85;0.35;;;20.30;60.80;;;;;;4935003;29;20472;-73
2021/07/19 13:32:44;;;;;;;1.08;0.43;;;20.20;60.30;;;;;;4934782;29;20032;-73